WetterOnline ( https://www.wetteronline.de )

Wetter aktuell Bad Belzig

Aktuelles Wetter: Wiesenburg (188m)

6-stündlich | Neueste Meldungen
Ortszeit Temperatur Wetter
Do, 09.02. 13:00 0.8° C fast wolkenlos
Do, 09.02. 7:00 -5.4° C wolkenlos
Do, 09.02. 1:00 -4.6° C wolkenlos
Mi, 08.02. 19:00 -2.2° C wolkenlos
Mi, 08.02. 13:00 0.8° C wolkenlos
Mi, 08.02. 7:00 -5.3° C wolkenlos
Mi, 08.02. 1:00 -5.4° C wolkenlos
Di, 07.02. 19:00 -2.4° C wolkenlos
Ortszeit Temperatur Wetter
Do, 09.02. 14:00 1.4° C fast wolkenlos
Do, 09.02. 13:50 1.4° C fast wolkenlos
Do, 09.02. 13:40 1.6° C leicht bewölkt
Do, 09.02. 13:30 1.3° C leicht bewölkt
Do, 09.02. 13:20 1.3° C leicht bewölkt
Do, 09.02. 13:10 1.3° C fast wolkenlos
Do, 09.02. 13:00 0.8° C fast wolkenlos
Do, 09.02. 12:30 0.4° C leicht bewölkt
Do, 09.02. 12:00 0.3° C leicht bewölkt
Do, 09.02. 11:30 -0.3° C leicht bewölkt
Do, 09.02. 11:00 -0.6° C fast wolkenlos
Ortszeit Relative Feuchte Sichtweite
Do, 09.02. 13:00 53% 45 km
Do, 09.02. 7:00 80% 18 km
Do, 09.02. 1:00 83% 13 km
Mi, 08.02. 19:00 77% 15 km
Mi, 08.02. 13:00 61% 26 km
Mi, 08.02. 7:00 90% 9 km
Mi, 08.02. 1:00 93% 5.0 km
Di, 07.02. 19:00 74% 21 km
Ortszeit Relative Feuchte Sichtweite
Do, 09.02. 14:00 53% 45 km
Do, 09.02. 13:50 53% -
Do, 09.02. 13:40 53% -
Do, 09.02. 13:30 52% 40 km
Do, 09.02. 13:20 52% -
Do, 09.02. 13:10 53% -
Do, 09.02. 13:00 53% 45 km
Do, 09.02. 12:30 56% 40 km
Do, 09.02. 12:00 56% 40 km
Do, 09.02. 11:30 56% 45 km
Do, 09.02. 11:00 61% 28 km
Ortszeit Niederschlagsmenge Niederschlagsart
Do, 09.02. 13:00 0.0 l/m2 in 6 Std. -
Do, 09.02. 7:00 0.0 l/m2 in 12 Std. -
Do, 09.02. 1:00 0.0 l/m2 in 6 Std. -
Mi, 08.02. 19:00 0.0 l/m2 in 12 Std. -
Mi, 08.02. 13:00 0.0 l/m2 in 6 Std. -
Mi, 08.02. 7:00 0.0 l/m2 in 12 Std. -
Mi, 08.02. 1:00 0.0 l/m2 in 6 Std. -
Di, 07.02. 19:00 0.0 l/m2 in 12 Std. -
Ortszeit Niederschlagsmenge Niederschlagsart
Do, 09.02. 14:00 0.0 l/m2 in 1 Std. -
Do, 09.02. 13:50 keine Meldung -
Do, 09.02. 13:40 keine Meldung -
Do, 09.02. 13:30 0.0 l/m2 in 30 Min -
Do, 09.02. 13:20 keine Meldung -
Do, 09.02. 13:10 keine Meldung -
Do, 09.02. 13:00 0.0 l/m2 in 1 Std. -
Do, 09.02. 12:30 0.0 l/m2 in 30 Min -
Do, 09.02. 12:00 0.0 l/m2 in 1 Std. -
Do, 09.02. 11:30 0.0 l/m2 in 30 Min -
Do, 09.02. 11:00 0.0 l/m2 in 1 Std. -
Ortszeit Stärke Spitze Richtung
km/h Bft. km/h Grad Sektor
Do, 09.02. 13:00 19 3 31 230° SW
Do, 09.02. 7:00 9 2 22 190° S
Do, 09.02. 1:00 7 2 32 180° S
Mi, 08.02. 19:00 7 2 25 140° SO
Mi, 08.02. 13:00 11 2 25 150° SO
Mi, 08.02. 7:00 4 1 11 130° SO
Mi, 08.02. 1:00 6 1 15 90° O
Di, 07.02. 19:00 6 1 15 200° S
Ortszeit Stärke Spitze Richtung
km/h Bft. km/h Grad Sektor
Do, 09.02. 14:00 17 3 33 220° SW
Do, 09.02. 13:50 17 3 - 220° SW
Do, 09.02. 13:40 18 3 - 210° SW
Do, 09.02. 13:30 22 4 29 220° SW
Do, 09.02. 13:20 22 4 - 220° SW
Do, 09.02. 13:10 17 3 - 210° SW
Do, 09.02. 13:00 19 3 31 230° SW
Do, 09.02. 12:30 19 3 31 190° S
Do, 09.02. 12:00 13 3 30 200° S
Do, 09.02. 11:30 15 3 30 190° S
Do, 09.02. 11:00 13 3 30 190° S
Ortszeit Untergrenze Bedeckung Gattung
total tief tief mittel hoch
Do, 09.02. 13:00 10500 m 1/8 0/8 - - -
Do, 09.02. 7:00 - 0/8 0/8 - - -
Do, 09.02. 1:00 - 0/8 0/8 - - -
Mi, 08.02. 19:00 - 0/8 0/8 - - -
Mi, 08.02. 13:00 - 0/8 0/8 - - -
Mi, 08.02. 7:00 - 0/8 0/8 - - -
Mi, 08.02. 1:00 - 0/8 0/8 - - -
Di, 07.02. 19:00 - 0/8 0/8 - - -
Ortszeit Bedeckungsgrad in Achtel und Wolkenuntergrenze
Do, 09.02. 14:00 2(8700m)
Do, 09.02. 13:50 2(8700m)
Do, 09.02. 13:40 4
Do, 09.02. 13:30 4(8400m)
Do, 09.02. 13:20 4(8400m)
Do, 09.02. 13:10 1
Do, 09.02. 13:00 1(10500m)
Do, 09.02. 12:30 1(9000m) 3(10500m)
Do, 09.02. 12:00 3(10500m)
Do, 09.02. 11:30 5(10500m)
Do, 09.02. 11:00 1(9000m)
Ortszeit Luftdruck NN (hPa) Tendenz (hPa in 3 Std.)
Do, 09.02. 13:00 1033 - 0,8
Do, 09.02. 7:00 1035 - 0,7
Do, 09.02. 1:00 1037 - 1,4
Mi, 08.02. 19:00 1040 - 1,2
Mi, 08.02. 13:00 1041 - 1,0
Mi, 08.02. 7:00 1043 - 0,2
Mi, 08.02. 1:00 1043 0,0
Di, 07.02. 19:00 1042 + 0,1
Ortszeit Luftdruck NN (hPa) Tendenz (hPa in 3 Std.)
Do, 09.02. 14:00 1032 - 1,1
Do, 09.02. 13:50 1032 keine Meldung
Do, 09.02. 13:40 1032 keine Meldung
Do, 09.02. 13:30 1033 - 1,1
Do, 09.02. 13:20 1033 keine Meldung
Do, 09.02. 13:10 1033 keine Meldung
Do, 09.02. 13:00 1033 - 0,8
Do, 09.02. 12:30 1033 - 1,2
Do, 09.02. 12:00 1033 - 0,9
Do, 09.02. 11:30 1033 - 0,9
Do, 09.02. 11:00 1034 - 0,5
Ortszeit Schneehöhe (cm)
Do, 09.02. 13:00 0
Do, 09.02. 7:00 0
Do, 09.02. 1:00 0
Mi, 08.02. 19:00 0
Mi, 08.02. 13:00 0
Mi, 08.02. 7:00 0
Mi, 08.02. 1:00 0
Di, 07.02. 19:00 0
Ortszeit Schneehöhe (cm)
Do, 09.02. 14:00 0
Do, 09.02. 13:50 0
Do, 09.02. 13:40 0
Do, 09.02. 13:30 0
Do, 09.02. 13:20 0
Do, 09.02. 13:10 0
Do, 09.02. 13:00 0
Do, 09.02. 12:30 0
Do, 09.02. 12:00 0
Do, 09.02. 11:30 0
Do, 09.02. 11:00 0
Link zu dieser Seite / Seite empfehlen

Das Wetter in ...